createdAt,value
2022-07-25T00:00:44.821Z,22.91
2022-07-25T00:01:44.856Z,22.90
2022-07-25T00:02:44.777Z,22.90
2022-07-25T00:03:44.769Z,22.90
2022-07-25T00:04:44.831Z,22.90
2022-07-25T00:05:44.764Z,22.90
2022-07-25T00:06:44.737Z,22.90
2022-07-25T00:07:44.730Z,22.90
2022-07-25T00:08:44.723Z,22.90
2022-07-25T00:09:44.706Z,22.90
2022-07-25T00:10:44.695Z,22.91
2022-07-25T00:11:44.704Z,22.88
2022-07-25T00:12:44.673Z,22.88
2022-07-25T00:13:44.665Z,22.90
2022-07-25T00:14:44.652Z,22.91
2022-07-25T00:15:44.728Z,22.90
2022-07-25T00:16:44.648Z,22.90
2022-07-25T00:17:44.619Z,22.90
2022-07-25T00:18:44.607Z,22.90
2022-07-25T00:19:44.601Z,22.90
2022-07-25T00:20:44.586Z,22.91
2022-07-25T00:21:44.595Z,22.88
2022-07-25T00:22:44.580Z,22.88
2022-07-25T00:23:44.558Z,22.88
2022-07-25T00:24:44.544Z,22.90
2022-07-25T00:25:44.535Z,22.90
2022-07-25T00:26:44.522Z,22.88
2022-07-25T00:27:44.535Z,22.90
2022-07-25T00:28:44.516Z,22.90
2022-07-25T00:29:44.497Z,22.88
2022-07-25T00:30:44.542Z,22.90
2022-07-25T00:31:44.542Z,22.88
2022-07-25T00:32:44.457Z,22.88
2022-07-25T00:33:44.469Z,22.88
2022-07-25T00:34:44.437Z,22.90
2022-07-25T00:35:44.425Z,22.90
2022-07-25T00:36:44.414Z,22.90
2022-07-25T00:37:44.404Z,22.90
2022-07-25T00:38:44.412Z,22.88
2022-07-25T00:39:44.386Z,22.91
2022-07-25T00:40:44.373Z,22.91
2022-07-25T00:41:44.396Z,22.88
2022-07-25T00:42:44.351Z,22.91
2022-07-25T00:43:44.359Z,22.90
2022-07-25T00:44:44.329Z,22.90
2022-07-25T00:45:44.321Z,22.90
2022-07-25T00:46:44.393Z,22.90
2022-07-25T00:47:44.304Z,22.88
2022-07-25T00:48:44.382Z,22.90
2022-07-25T00:49:44.279Z,22.90
2022-07-25T00:50:44.268Z,22.88
2022-07-25T00:51:44.255Z,22.90
2022-07-25T00:52:44.244Z,22.90
2022-07-25T00:53:44.236Z,22.88
2022-07-25T00:54:44.240Z,22.90
2022-07-25T00:55:44.215Z,22.88
2022-07-25T00:56:44.201Z,22.90
2022-07-25T00:57:44.193Z,22.88
2022-07-25T00:58:44.180Z,22.88
2022-07-25T00:59:44.188Z,22.90
2022-07-25T01:00:44.157Z,22.90
2022-07-25T01:01:44.205Z,22.88
2022-07-25T01:02:44.212Z,22.88
2022-07-25T01:03:44.126Z,22.90
2022-07-25T01:04:44.157Z,22.88
2022-07-25T01:05:44.103Z,22.88
2022-07-25T01:06:44.094Z,22.88
2022-07-25T01:07:44.085Z,22.88
2022-07-25T01:08:44.075Z,22.88
2022-07-25T01:09:44.078Z,22.88
2022-07-25T01:10:44.065Z,22.90
2022-07-25T01:11:44.039Z,22.88
2022-07-25T01:12:44.029Z,22.90
2022-07-25T01:13:44.017Z,22.88
2022-07-25T01:14:44.008Z,22.90
2022-07-25T01:15:44.114Z,22.90
2022-07-25T01:16:44.004Z,22.88
2022-07-25T01:17:43.974Z,22.88
2022-07-25T01:18:43.969Z,22.88
2022-07-25T01:19:43.953Z,22.90
2022-07-25T01:20:43.942Z,22.90
2022-07-25T01:21:43.949Z,22.90
2022-07-25T01:22:43.922Z,22.88
2022-07-25T01:23:43.910Z,22.86
2022-07-25T01:24:43.901Z,22.90
2022-07-25T01:25:43.887Z,22.90
2022-07-25T01:26:43.895Z,22.88
2022-07-25T01:27:43.874Z,22.90
2022-07-25T01:28:43.862Z,22.88
2022-07-25T01:29:43.844Z,22.88
2022-07-25T01:30:43.939Z,22.90
2022-07-25T01:31:43.840Z,22.90
2022-07-25T01:32:43.816Z,22.90
2022-07-25T01:33:43.802Z,22.90
2022-07-25T01:34:43.794Z,22.88
2022-07-25T01:35:43.781Z,22.90
2022-07-25T01:36:43.790Z,22.88
2022-07-25T01:37:45.417Z,22.90
2022-07-25T01:38:43.751Z,22.88
2022-07-25T01:39:43.739Z,22.88
2022-07-25T01:40:43.732Z,22.88
2022-07-25T01:41:43.738Z,22.88
2022-07-25T01:42:43.713Z,22.90
2022-07-25T01:43:43.701Z,22.88
2022-07-25T01:44:43.690Z,22.88
2022-07-25T01:45:43.677Z,22.90
2022-07-25T01:46:43.761Z,22.88
2022-07-25T01:47:43.656Z,22.90
2022-07-25T01:48:43.709Z,22.90
2022-07-25T01:49:43.635Z,22.88
2022-07-25T01:50:43.629Z,22.88
2022-07-25T01:51:43.629Z,22.90
2022-07-25T01:52:43.603Z,22.88
2022-07-25T01:53:43.589Z,22.88
2022-07-25T01:54:43.596Z,22.88
2022-07-25T01:55:43.571Z,22.88
2022-07-25T01:56:43.589Z,22.90
2022-07-25T01:57:50.011Z,22.86
2022-07-25T01:58:44.538Z,22.88
2022-07-25T01:59:43.530Z,22.88
2022-07-25T02:00:43.519Z,22.90
2022-07-25T02:01:43.626Z,22.90
2022-07-25T02:02:43.512Z,22.88
2022-07-25T02:03:43.485Z,22.88
2022-07-25T02:04:43.538Z,22.88
2022-07-25T02:05:43.466Z,22.88
2022-07-25T02:06:43.453Z,22.91
2022-07-25T02:07:43.478Z,22.88
2022-07-25T02:08:43.434Z,22.88
2022-07-25T02:09:43.421Z,22.88
2022-07-25T02:10:43.422Z,22.90
2022-07-25T02:11:43.400Z,22.88
2022-07-25T02:12:43.405Z,22.88
2022-07-25T02:13:43.378Z,22.88
2022-07-25T02:14:43.372Z,22.88
2022-07-25T02:15:43.357Z,22.88
2022-07-25T02:16:43.385Z,22.90
2022-07-25T02:17:43.350Z,22.88
2022-07-25T02:18:43.325Z,22.90
2022-07-25T02:19:43.314Z,22.90
2022-07-25T02:20:43.306Z,22.88
2022-07-25T02:21:43.292Z,22.88
2022-07-25T02:22:43.301Z,22.88
2022-07-25T02:23:43.296Z,22.90
2022-07-25T02:24:43.263Z,22.88
2022-07-25T02:25:43.250Z,22.86
2022-07-25T02:26:43.241Z,22.88
2022-07-25T02:27:43.229Z,22.86
2022-07-25T02:28:43.236Z,22.86
2022-07-25T02:29:43.207Z,22.90
2022-07-25T02:30:43.268Z,22.88
2022-07-25T02:31:43.190Z,22.88
2022-07-25T02:32:43.180Z,22.86
2022-07-25T02:33:43.179Z,22.86
2022-07-25T02:34:43.170Z,22.90
2022-07-25T02:35:43.143Z,22.90
2022-07-25T02:36:43.150Z,22.86
2022-07-25T02:37:43.123Z,22.88
2022-07-25T02:38:43.112Z,22.88
2022-07-25T02:39:43.117Z,22.88
2022-07-25T02:40:43.108Z,22.88
2022-07-25T02:41:43.082Z,22.88
2022-07-25T02:42:43.078Z,22.86
2022-07-25T02:43:43.058Z,22.88
2022-07-25T02:44:43.050Z,22.88
2022-07-25T02:45:43.103Z,22.90
2022-07-25T02:46:43.032Z,22.88
2022-07-25T02:47:43.017Z,22.88
2022-07-25T02:48:43.076Z,22.88
2022-07-25T02:49:43.001Z,22.88
2022-07-25T02:50:43.001Z,22.88
2022-07-25T02:51:42.976Z,22.88
2022-07-25T02:52:42.964Z,22.88
2022-07-25T02:53:59.069Z,22.88
2022-07-25T02:54:43.954Z,22.88
2022-07-25T02:55:42.947Z,22.88
2022-07-25T02:56:42.937Z,22.88
2022-07-25T02:57:42.912Z,22.86
2022-07-25T02:58:42.903Z,22.86
2022-07-25T02:59:42.889Z,22.88
2022-07-25T03:00:44.282Z,22.88
2022-07-25T03:01:42.967Z,22.88
2022-07-25T03:02:42.854Z,22.88
2022-07-25T03:03:42.988Z,22.88
2022-07-25T03:04:42.834Z,22.88
2022-07-25T03:05:42.827Z,22.88
2022-07-25T03:06:42.819Z,22.88
2022-07-25T03:07:42.807Z,22.88
2022-07-25T03:08:42.808Z,22.88
2022-07-25T03:09:42.785Z,22.88
2022-07-25T03:10:42.770Z,22.88
2022-07-25T03:11:42.763Z,22.88
2022-07-25T03:12:42.749Z,22.86
2022-07-25T03:13:42.762Z,22.86
2022-07-25T03:14:42.728Z,22.88
2022-07-25T03:15:42.721Z,22.88
2022-07-25T03:16:42.754Z,22.88
2022-07-25T03:17:42.699Z,22.88
2022-07-25T03:18:42.702Z,22.86
2022-07-25T03:19:42.689Z,22.88
2022-07-25T03:20:42.664Z,22.86
2022-07-25T03:21:42.656Z,22.88
2022-07-25T03:22:42.640Z,22.88
2022-07-25T03:23:42.632Z,22.86
2022-07-25T03:24:42.636Z,22.88
2022-07-25T03:25:42.625Z,22.88
2022-07-25T03:26:42.598Z,22.86
2022-07-25T03:27:42.592Z,22.88
2022-07-25T03:28:42.578Z,22.86
2022-07-25T03:29:42.570Z,22.86
2022-07-25T03:30:42.573Z,22.88
2022-07-25T03:31:42.647Z,22.88
2022-07-25T03:32:42.552Z,22.88
2022-07-25T03:33:42.530Z,22.86
2022-07-25T03:34:42.515Z,22.88
2022-07-25T03:35:42.508Z,22.86
2022-07-25T03:36:42.495Z,22.88
2022-07-25T03:37:42.504Z,22.88
2022-07-25T03:38:42.479Z,22.88
2022-07-25T03:39:42.466Z,22.88
2022-07-25T03:40:42.452Z,22.85
2022-07-25T03:41:42.440Z,22.86
2022-07-25T03:42:42.446Z,22.88
2022-07-25T03:43:42.420Z,22.86
2022-07-25T03:44:42.409Z,22.86
2022-07-25T03:45:42.476Z,22.86
2022-07-25T03:46:42.388Z,22.88
2022-07-25T03:47:42.395Z,22.86
2022-07-25T03:48:42.428Z,22.88
2022-07-25T03:49:42.359Z,22.86
2022-07-25T03:50:42.347Z,22.86
2022-07-25T03:51:42.336Z,22.88
2022-07-25T03:52:42.323Z,22.85
2022-07-25T03:53:42.333Z,22.85
2022-07-25T03:54:42.319Z,22.88
2022-07-25T03:55:42.292Z,22.86
2022-07-25T03:56:43.691Z,22.88
2022-07-25T03:57:42.273Z,22.86
2022-07-25T03:58:42.261Z,22.86
2022-07-25T03:59:42.269Z,22.86
2022-07-25T04:00:42.311Z,22.86
2022-07-25T04:01:42.231Z,22.86
2022-07-25T04:02:42.351Z,22.85
2022-07-25T04:03:42.204Z,22.86
2022-07-25T04:04:42.214Z,22.86
2022-07-25T04:05:47.266Z,22.88
2022-07-25T04:06:43.173Z,22.86
2022-07-25T04:07:42.168Z,22.88
2022-07-25T04:08:42.151Z,22.86
2022-07-25T04:09:42.143Z,22.85
2022-07-25T04:10:42.147Z,22.86
2022-07-25T04:11:42.121Z,22.86
2022-07-25T04:12:42.110Z,22.88
2022-07-25T04:13:42.102Z,22.86
2022-07-25T04:14:42.089Z,22.86
2022-07-25T04:15:42.098Z,22.88
2022-07-25T04:16:42.115Z,22.88
2022-07-25T04:17:42.066Z,22.85
2022-07-25T04:18:42.048Z,22.86
2022-07-25T04:19:42.039Z,22.88
2022-07-25T04:20:42.041Z,22.86
2022-07-25T04:21:42.022Z,22.86
2022-07-25T04:22:46.361Z,22.88
2022-07-25T04:23:41.995Z,22.88
2022-07-25T04:24:41.987Z,22.86
2022-07-25T04:25:41.991Z,22.88
2022-07-25T04:26:41.963Z,22.86
2022-07-25T04:27:41.970Z,22.86
2022-07-25T04:28:41.942Z,22.88
2022-07-25T04:29:41.935Z,22.86
2022-07-25T04:30:41.938Z,22.88
2022-07-25T04:31:42.027Z,22.88
2022-07-25T04:32:41.915Z,22.86
2022-07-25T04:33:41.893Z,22.88
2022-07-25T04:34:41.880Z,22.88
2022-07-25T04:35:41.868Z,22.86
2022-07-25T04:36:41.859Z,22.88
2022-07-25T04:37:41.864Z,22.86
2022-07-25T04:38:41.852Z,22.86
2022-07-25T04:39:41.829Z,22.88
2022-07-25T04:40:41.817Z,22.85
2022-07-25T04:41:41.806Z,22.86
2022-07-25T04:42:41.798Z,22.88
2022-07-25T04:43:48.053Z,22.88
2022-07-25T04:44:42.774Z,22.88
2022-07-25T04:45:41.840Z,22.86
2022-07-25T04:46:41.752Z,22.88
2022-07-25T04:47:41.745Z,22.86
2022-07-25T04:48:41.763Z,22.88
2022-07-25T04:49:41.726Z,22.88
2022-07-25T04:50:41.712Z,22.86
2022-07-25T04:51:41.706Z,22.88
2022-07-25T04:52:41.693Z,22.88
2022-07-25T04:53:41.697Z,22.88
2022-07-25T04:54:41.670Z,22.90
2022-07-25T04:55:41.663Z,22.88
2022-07-25T04:56:41.649Z,22.88
2022-07-25T04:57:41.639Z,22.88
2022-07-25T04:58:41.642Z,22.86
2022-07-25T04:59:41.616Z,22.88
2022-07-25T05:00:41.685Z,22.90
2022-07-25T05:01:41.595Z,22.86
2022-07-25T05:02:41.676Z,22.88
2022-07-25T05:03:41.595Z,22.88
2022-07-25T05:04:45.360Z,22.90
2022-07-25T05:05:41.556Z,22.88
2022-07-25T05:06:41.543Z,22.90
2022-07-25T05:07:41.535Z,22.90
2022-07-25T05:08:41.523Z,22.90
2022-07-25T05:09:41.529Z,22.90
2022-07-25T05:10:41.500Z,22.88
2022-07-25T05:11:46.595Z,22.90
2022-07-25T05:12:42.479Z,22.90
2022-07-25T05:13:41.471Z,22.88
2022-07-25T05:14:41.475Z,22.90
2022-07-25T05:15:41.453Z,22.90
2022-07-25T05:16:41.518Z,22.90
2022-07-25T05:17:41.431Z,22.88
2022-07-25T05:18:41.419Z,22.90
2022-07-25T05:19:41.430Z,22.90
2022-07-25T05:20:41.398Z,22.90
2022-07-25T05:21:41.386Z,22.88
2022-07-25T05:22:41.375Z,22.88
2022-07-25T05:23:41.376Z,22.90
2022-07-25T05:24:41.369Z,22.90
2022-07-25T05:25:41.360Z,22.88
2022-07-25T05:26:41.331Z,22.90
2022-07-25T05:27:41.322Z,22.90
2022-07-25T05:28:41.312Z,22.90
2022-07-25T05:29:41.304Z,22.88
2022-07-25T05:30:41.307Z,22.91
2022-07-25T05:31:41.377Z,22.91
2022-07-25T05:32:41.268Z,22.90
2022-07-25T05:33:41.263Z,22.91
2022-07-25T05:34:41.248Z,22.90
2022-07-25T05:35:41.240Z,22.90
2022-07-25T05:36:46.830Z,22.90
2022-07-25T05:37:42.218Z,22.91
2022-07-25T05:38:41.205Z,22.90
2022-07-25T05:39:41.199Z,22.90
2022-07-25T05:40:41.184Z,22.90
2022-07-25T05:41:41.173Z,22.90
2022-07-25T05:42:41.180Z,22.90
2022-07-25T05:43:41.154Z,22.91
2022-07-25T05:44:41.142Z,22.91
2022-07-25T05:45:41.138Z,22.91
2022-07-25T05:46:41.155Z,22.91
2022-07-25T05:47:41.129Z,22.90
2022-07-25T05:48:41.122Z,22.91
2022-07-25T05:49:41.087Z,22.90
2022-07-25T05:50:41.080Z,22.90
2022-07-25T05:51:41.094Z,22.90
2022-07-25T05:52:41.073Z,22.90
2022-07-25T05:53:41.067Z,22.91
2022-07-25T05:54:41.035Z,22.91
2022-07-25T05:55:41.163Z,22.90
2022-07-25T05:56:41.014Z,22.91
2022-07-25T05:57:41.006Z,22.91
2022-07-25T05:58:41.016Z,22.91
2022-07-25T05:59:40.982Z,22.91
2022-07-25T06:00:40.971Z,22.91
2022-07-25T06:01:41.066Z,22.91
2022-07-25T06:02:41.118Z,22.91
2022-07-25T06:03:40.943Z,22.90
2022-07-25T06:04:40.944Z,22.91
2022-07-25T06:05:40.923Z,22.91
2022-07-25T06:06:40.908Z,22.91
2022-07-25T06:07:40.898Z,22.91
2022-07-25T06:08:40.887Z,22.91
2022-07-25T06:09:40.893Z,22.91
2022-07-25T06:10:40.866Z,22.91
2022-07-25T06:11:51.121Z,22.94
2022-07-25T06:12:41.844Z,22.92
2022-07-25T06:13:40.837Z,22.92
2022-07-25T06:14:40.840Z,22.91
2022-07-25T06:15:40.813Z,22.91
2022-07-25T06:16:40.886Z,22.91
2022-07-25T06:17:40.795Z,22.90
2022-07-25T06:18:40.783Z,22.91
2022-07-25T06:19:40.787Z,22.92
2022-07-25T06:20:40.775Z,22.91
2022-07-25T06:21:40.750Z,22.92
2022-07-25T06:22:40.738Z,22.92
2022-07-25T06:23:40.730Z,22.91
2022-07-25T06:24:40.716Z,22.91
2022-07-25T06:25:40.727Z,22.91
2022-07-25T06:26:40.694Z,22.91
2022-07-25T06:27:40.685Z,22.92
2022-07-25T06:28:40.673Z,22.91
2022-07-25T06:29:40.663Z,22.91
2022-07-25T06:30:40.669Z,22.91
2022-07-25T06:31:40.717Z,22.91
2022-07-25T06:32:40.635Z,22.92
2022-07-25T06:33:40.622Z,22.91
2022-07-25T06:34:40.611Z,22.90
2022-07-25T06:35:40.601Z,22.91
2022-07-25T06:36:40.611Z,22.91
2022-07-25T06:37:40.581Z,22.91
2022-07-25T06:38:40.567Z,22.90
2022-07-25T06:39:45.471Z,22.91
2022-07-25T06:40:41.544Z,22.92
2022-07-25T06:41:40.553Z,22.91
2022-07-25T06:42:40.524Z,22.91
2022-07-25T06:43:40.530Z,22.91
2022-07-25T06:44:40.511Z,22.91
2022-07-25T06:45:40.497Z,22.91
2022-07-25T06:46:40.627Z,22.92
2022-07-25T06:47:40.470Z,22.92
2022-07-25T06:48:40.580Z,22.92
2022-07-25T06:49:40.451Z,22.92
2022-07-25T06:50:40.439Z,22.92
2022-07-25T06:51:40.431Z,22.92
2022-07-25T06:52:40.418Z,22.92
2022-07-25T06:53:40.424Z,22.91
2022-07-25T06:54:40.399Z,22.92
2022-07-25T06:55:40.386Z,22.91
2022-07-25T06:56:40.375Z,22.92
2022-07-25T06:57:40.368Z,22.92
2022-07-25T06:58:40.372Z,22.94
2022-07-25T06:59:40.362Z,22.92
2022-07-25T07:00:40.415Z,22.94
2022-07-25T07:01:40.324Z,22.92
2022-07-25T07:02:40.312Z,22.94
2022-07-25T07:03:40.532Z,22.94
2022-07-25T07:04:40.308Z,22.92
2022-07-25T07:05:40.294Z,22.92
2022-07-25T07:06:40.274Z,22.92
2022-07-25T07:07:43.338Z,22.92
2022-07-25T07:08:41.262Z,22.92
2022-07-25T07:09:40.239Z,22.94
2022-07-25T07:10:40.253Z,22.94
2022-07-25T07:11:40.218Z,22.94
2022-07-25T07:12:40.208Z,22.94
2022-07-25T07:13:40.198Z,22.92
2022-07-25T07:14:40.189Z,22.92
2022-07-25T07:15:40.213Z,22.92
2022-07-25T07:16:40.216Z,22.92
2022-07-25T07:17:40.155Z,22.94
2022-07-25T07:18:40.150Z,22.91
2022-07-25T07:19:40.135Z,22.92
2022-07-25T07:20:40.153Z,22.92
2022-07-25T07:21:40.116Z,22.94
2022-07-25T07:22:40.104Z,22.95
2022-07-25T07:23:40.095Z,22.94
2022-07-25T07:24:44.070Z,22.94
2022-07-25T07:25:41.095Z,22.94
2022-07-25T07:26:40.076Z,22.94
2022-07-25T07:27:40.054Z,22.94
2022-07-25T07:28:40.040Z,22.94
2022-07-25T07:29:40.032Z,22.94
2022-07-25T07:31:13.406Z,22.92
2022-07-25T07:31:41.122Z,22.92
2022-07-25T07:32:39.999Z,22.92
2022-07-25T07:33:39.991Z,22.94
2022-07-25T07:34:39.978Z,22.94
2022-07-25T07:35:39.969Z,22.94
2022-07-25T07:36:39.973Z,22.94
2022-07-25T07:37:43.471Z,22.94
2022-07-25T07:38:39.938Z,22.94
2022-07-25T07:39:39.926Z,22.92
2022-07-25T07:40:39.918Z,22.94
2022-07-25T07:41:39.906Z,22.94
2022-07-25T07:42:39.910Z,22.95
2022-07-25T07:43:39.887Z,22.95
2022-07-25T07:44:39.874Z,22.94
2022-07-25T07:45:39.866Z,22.95
2022-07-25T07:46:39.914Z,22.94
2022-07-25T07:47:39.859Z,22.94
2022-07-25T07:48:39.935Z,22.95
2022-07-25T07:49:39.822Z,22.94
2022-07-25T07:50:39.809Z,22.95
2022-07-25T07:51:39.804Z,22.95
2022-07-25T07:52:39.806Z,22.95
2022-07-25T07:53:39.782Z,22.94
2022-07-25T07:54:39.769Z,22.94
2022-07-25T07:55:39.762Z,22.95
2022-07-25T07:56:39.749Z,22.95
2022-07-25T07:57:39.755Z,22.95
2022-07-25T07:58:39.726Z,22.94
2022-07-25T07:59:39.716Z,22.95
2022-07-25T08:00:39.712Z,22.95
2022-07-25T08:01:39.784Z,22.94
2022-07-25T08:02:39.755Z,22.95
2022-07-25T08:03:39.687Z,22.95
2022-07-25T08:04:39.668Z,22.97
2022-07-25T08:05:39.655Z,22.97
2022-07-25T08:06:39.644Z,22.95
2022-07-25T08:07:39.634Z,22.97
2022-07-25T08:08:39.638Z,22.97
2022-07-25T08:09:39.616Z,22.95
2022-07-25T08:10:39.605Z,22.95
2022-07-25T08:11:39.592Z,22.95
2022-07-25T08:12:39.581Z,22.97
2022-07-25T08:13:39.587Z,22.97
2022-07-25T08:14:39.561Z,22.97
2022-07-25T08:15:39.622Z,22.95
2022-07-25T08:16:39.593Z,22.95
2022-07-25T08:17:39.531Z,22.97
2022-07-25T08:18:39.534Z,22.97
2022-07-25T08:19:39.510Z,22.97
2022-07-25T08:20:39.679Z,22.97
2022-07-25T08:21:39.489Z,22.97
2022-07-25T08:22:39.476Z,22.97
2022-07-25T08:23:39.506Z,22.97
2022-07-25T08:24:39.471Z,22.97
2022-07-25T08:25:39.447Z,22.97
2022-07-25T08:26:39.434Z,22.97
2022-07-25T08:27:39.426Z,22.97
2022-07-25T08:28:39.413Z,22.97
2022-07-25T08:29:39.419Z,22.97
2022-07-25T08:30:39.397Z,22.97
2022-07-25T08:31:39.470Z,22.98
2022-07-25T08:32:39.371Z,22.97
2022-07-25T08:33:39.363Z,22.98
2022-07-25T08:34:39.350Z,22.95
2022-07-25T08:35:39.358Z,22.98
2022-07-25T08:36:39.330Z,22.97
2022-07-25T08:37:39.320Z,22.98
2022-07-25T08:38:39.311Z,22.97
2022-07-25T08:39:39.296Z,22.97
2022-07-25T08:40:39.308Z,22.97
2022-07-25T08:41:39.275Z,22.97
2022-07-25T08:42:39.267Z,22.98
2022-07-25T08:43:39.258Z,22.98
2022-07-25T08:44:39.241Z,22.97
2022-07-25T08:45:39.250Z,22.97
2022-07-25T08:46:39.308Z,22.98
2022-07-25T08:47:39.214Z,22.98
2022-07-25T08:48:39.368Z,22.98
2022-07-25T08:49:39.194Z,22.98
2022-07-25T08:50:39.195Z,22.98
2022-07-25T08:51:39.169Z,23.00
2022-07-25T08:52:39.177Z,22.97
2022-07-25T08:53:39.157Z,22.98
2022-07-25T08:54:39.144Z,22.98
2022-07-25T08:55:39.133Z,22.97
2022-07-25T08:56:39.118Z,22.98
2022-07-25T08:57:39.125Z,22.97
2022-07-25T08:58:39.111Z,22.98
2022-07-25T08:59:39.088Z,22.98
2022-07-25T09:00:39.080Z,22.98
2022-07-25T09:01:39.131Z,23.00
2022-07-25T09:02:39.135Z,22.98
2022-07-25T09:03:39.063Z,22.97
2022-07-25T09:04:39.032Z,22.98
2022-07-25T09:05:39.127Z,22.98
2022-07-25T09:06:39.012Z,23.00
2022-07-25T09:07:39.007Z,22.98
2022-07-25T09:08:39.014Z,22.98
2022-07-25T09:09:38.989Z,23.00
2022-07-25T09:10:38.971Z,22.97
2022-07-25T09:11:38.962Z,22.98
2022-07-25T09:12:39.600Z,22.98
2022-07-25T09:13:38.965Z,22.98
2022-07-25T09:14:38.926Z,22.98
2022-07-25T09:15:38.980Z,23.00
2022-07-25T09:16:40.209Z,22.98
2022-07-25T09:17:38.901Z,22.98
2022-07-25T09:18:38.904Z,22.98
2022-07-25T09:19:38.876Z,22.98
2022-07-25T09:20:38.869Z,23.00
2022-07-25T09:21:38.860Z,23.00
2022-07-25T09:22:38.845Z,22.98
2022-07-25T09:23:38.838Z,22.98
2022-07-25T09:24:38.841Z,23.00
2022-07-25T09:25:38.818Z,23.00
2022-07-25T09:26:38.802Z,23.00
2022-07-25T09:27:38.793Z,23.00
2022-07-25T09:28:38.785Z,23.01
2022-07-25T09:29:38.795Z,23.00
2022-07-25T09:30:38.761Z,23.01
2022-07-25T09:31:38.827Z,22.98
2022-07-25T09:32:38.740Z,23.01
2022-07-25T09:33:38.734Z,23.00
2022-07-25T09:34:38.723Z,23.00
2022-07-25T09:35:38.731Z,23.00
2022-07-25T09:36:38.700Z,23.00
2022-07-25T09:37:38.693Z,23.00
2022-07-25T09:38:38.677Z,23.00
2022-07-25T09:39:43.472Z,23.00
2022-07-25T09:40:39.673Z,23.01
2022-07-25T09:41:38.647Z,23.00
2022-07-25T09:42:38.636Z,22.98
2022-07-25T09:43:38.626Z,23.01
2022-07-25T09:44:38.614Z,23.01
2022-07-25T09:45:38.621Z,23.00
2022-07-25T09:46:38.695Z,23.00
2022-07-25T09:47:38.588Z,23.01
2022-07-25T09:48:38.628Z,23.00
2022-07-25T09:49:38.564Z,23.00
2022-07-25T09:50:38.568Z,23.01
2022-07-25T09:51:38.545Z,23.01
2022-07-25T09:52:38.530Z,23.02
2022-07-25T09:53:38.520Z,23.01
2022-07-25T09:54:38.509Z,22.98
2022-07-25T09:55:38.516Z,23.00
2022-07-25T09:56:38.491Z,23.01
2022-07-25T09:57:38.478Z,23.01
2022-07-25T09:58:38.468Z,23.01
2022-07-25T09:59:38.462Z,23.01
2022-07-25T10:00:38.461Z,23.00
2022-07-25T10:01:38.561Z,23.01
2022-07-25T10:02:38.520Z,23.00
2022-07-25T10:03:38.424Z,23.01
2022-07-25T10:04:38.405Z,23.01
2022-07-25T10:05:38.395Z,23.02
2022-07-25T10:06:38.399Z,23.01
2022-07-25T10:07:38.374Z,23.01
2022-07-25T10:08:38.365Z,23.01
2022-07-25T10:09:38.354Z,23.02
2022-07-25T10:10:38.340Z,23.01
2022-07-25T10:11:38.346Z,23.00
2022-07-25T10:12:38.321Z,23.00
2022-07-25T10:13:38.313Z,23.01
2022-07-25T10:14:38.301Z,23.01
2022-07-25T10:15:38.290Z,23.01
2022-07-25T10:16:38.357Z,23.02
2022-07-25T10:17:38.269Z,23.01
2022-07-25T10:18:38.258Z,23.02
2022-07-25T10:19:38.249Z,23.01
2022-07-25T10:20:38.235Z,23.01
2022-07-25T10:21:38.244Z,23.01
2022-07-25T10:22:55.113Z,23.01
2022-07-25T10:23:39.203Z,23.01
2022-07-25T10:24:38.195Z,23.01
2022-07-25T10:25:38.185Z,23.01
2022-07-25T10:26:38.172Z,23.00
2022-07-25T10:27:38.182Z,23.01
2022-07-25T10:28:38.156Z,23.01
2022-07-25T10:29:38.144Z,23.02
2022-07-25T10:30:38.215Z,23.00
2022-07-25T10:31:38.127Z,23.01
2022-07-25T10:32:38.129Z,23.01
2022-07-25T10:33:38.118Z,23.01
2022-07-25T10:34:38.091Z,23.01
2022-07-25T10:35:38.082Z,23.01
2022-07-25T10:36:38.070Z,23.00
2022-07-25T10:37:38.059Z,23.01
2022-07-25T10:38:38.065Z,23.00
2022-07-25T10:39:38.037Z,23.01
2022-07-25T10:40:38.027Z,23.01
2022-07-25T10:41:38.018Z,23.01
2022-07-25T10:42:38.009Z,23.02
2022-07-25T10:43:38.015Z,23.02
2022-07-25T10:44:38.002Z,23.02
2022-07-25T10:45:38.468Z,23.00
2022-07-25T10:46:38.052Z,23.01
2022-07-25T10:47:37.956Z,23.02
2022-07-25T10:48:38.037Z,23.01
2022-07-25T10:49:38.861Z,23.02
2022-07-25T10:50:54.861Z,23.02
2022-07-25T10:51:41.899Z,23.01
2022-07-25T10:52:37.902Z,23.01
2022-07-25T10:53:37.897Z,23.01
2022-07-25T10:54:37.898Z,23.01
2022-07-25T10:55:37.872Z,23.00
2022-07-25T10:56:37.859Z,23.01
2022-07-25T10:57:49.721Z,23.01
2022-07-25T10:58:38.837Z,23.01
2022-07-25T10:59:37.845Z,23.02
2022-07-25T11:00:37.815Z,23.02
2022-07-25T11:01:37.918Z,23.02
2022-07-25T11:02:37.867Z,23.04
2022-07-25T11:03:37.788Z,23.02
2022-07-25T11:04:37.789Z,23.02
2022-07-25T11:05:37.767Z,23.02
2022-07-25T11:06:37.762Z,23.02
2022-07-25T11:07:37.744Z,23.04
2022-07-25T11:08:37.736Z,23.04
2022-07-25T11:09:37.737Z,23.04
2022-07-25T11:10:37.726Z,23.02
2022-07-25T11:11:37.701Z,23.04
2022-07-25T11:12:37.687Z,23.04
2022-07-25T11:13:37.680Z,23.02
2022-07-25T11:14:37.667Z,23.04
2022-07-25T11:15:37.676Z,23.05
2022-07-25T11:16:37.681Z,23.04
2022-07-25T11:17:37.637Z,23.05
2022-07-25T11:18:37.625Z,23.04
2022-07-25T11:19:37.616Z,23.05
2022-07-25T11:20:37.621Z,23.04
2022-07-25T11:21:37.594Z,23.05
2022-07-25T11:22:37.584Z,23.05
2022-07-25T11:23:37.577Z,23.05
2022-07-25T11:24:37.562Z,23.05
2022-07-25T11:25:37.571Z,23.04
2022-07-25T11:26:37.542Z,23.04
2022-07-25T11:27:37.533Z,23.07
2022-07-25T11:28:37.520Z,23.05
2022-07-25T11:29:37.512Z,23.07
2022-07-25T11:30:37.521Z,23.07
2022-07-25T11:31:37.549Z,23.07
2022-07-25T11:32:37.486Z,23.07
2022-07-25T11:33:38.790Z,23.07
2022-07-25T11:34:37.463Z,23.09
2022-07-25T11:35:37.447Z,23.09
2022-07-25T11:36:37.456Z,23.07
2022-07-25T11:37:37.429Z,23.05
2022-07-25T11:38:37.418Z,23.09
2022-07-25T11:39:37.405Z,23.09
2022-07-25T11:40:37.397Z,23.09
2022-07-25T11:41:37.538Z,23.09
2022-07-25T11:42:37.374Z,23.09
2022-07-25T11:43:37.366Z,23.10
2022-07-25T11:44:37.354Z,23.09
2022-07-25T11:45:37.403Z,23.10
2022-07-25T11:46:37.440Z,23.10
2022-07-25T11:47:37.339Z,23.09
2022-07-25T11:48:37.401Z,23.09
2022-07-25T11:49:37.302Z,23.10
2022-07-25T11:50:37.290Z,23.09
2022-07-25T11:51:37.280Z,23.10
2022-07-25T11:52:37.286Z,23.10
2022-07-25T11:53:37.259Z,23.12
2022-07-25T11:54:37.252Z,23.12
2022-07-25T11:55:37.241Z,23.12
2022-07-25T11:56:42.858Z,23.10
2022-07-25T11:57:38.235Z,23.10
2022-07-25T11:58:37.209Z,23.10
2022-07-25T11:59:37.197Z,23.12
2022-07-25T12:00:37.189Z,23.12
2022-07-25T12:01:37.178Z,23.10
2022-07-25T12:02:37.313Z,23.12
2022-07-25T12:03:37.315Z,23.10
2022-07-25T12:04:37.144Z,23.12
2022-07-25T12:05:37.134Z,23.10
2022-07-25T12:06:37.127Z,23.10
2022-07-25T12:07:37.115Z,23.10
2022-07-25T12:08:37.120Z,23.12
2022-07-25T12:09:37.092Z,23.13
2022-07-25T12:10:37.084Z,23.12
2022-07-25T12:11:37.072Z,23.13
2022-07-25T12:12:37.064Z,23.12
2022-07-25T12:13:37.066Z,23.12
2022-07-25T12:14:37.058Z,23.12
2022-07-25T12:15:37.030Z,23.12
2022-07-25T12:16:37.053Z,23.13
2022-07-25T12:17:37.010Z,23.13
2022-07-25T12:18:37.001Z,23.12
2022-07-25T12:19:37.004Z,23.12
2022-07-25T12:20:36.994Z,23.10
2022-07-25T12:21:36.967Z,23.12
2022-07-25T12:22:36.958Z,23.12
2022-07-25T12:23:36.945Z,23.12
2022-07-25T12:24:36.937Z,23.12
2022-07-25T12:25:36.940Z,23.13
2022-07-25T12:26:36.915Z,23.12
2022-07-25T12:27:36.902Z,23.12
2022-07-25T12:28:36.895Z,23.12
2022-07-25T12:29:36.882Z,23.13
2022-07-25T12:30:36.925Z,23.13
2022-07-25T12:31:36.860Z,23.13
2022-07-25T12:32:36.852Z,23.12
2022-07-25T12:33:36.841Z,23.12
2022-07-25T12:34:36.830Z,23.12
2022-07-25T12:35:36.834Z,23.12
2022-07-25T12:36:36.808Z,23.13
2022-07-25T12:37:36.796Z,23.12
2022-07-25T12:38:36.785Z,23.12
2022-07-25T12:39:36.778Z,23.13
2022-07-25T12:40:36.784Z,23.13
2022-07-25T12:41:36.757Z,23.12
2022-07-25T12:42:36.747Z,23.12
2022-07-25T12:43:36.732Z,23.12
2022-07-25T12:44:36.722Z,23.12
2022-07-25T12:45:36.842Z,23.10
2022-07-25T12:46:36.701Z,23.12
2022-07-25T12:47:36.714Z,23.13
2022-07-25T12:48:36.737Z,23.12
2022-07-25T12:49:36.667Z,23.12
2022-07-25T12:50:36.660Z,23.12
2022-07-25T12:51:36.648Z,23.13
2022-07-25T12:52:36.652Z,23.12